createdAt,value
2018-03-25T00:00:54.132Z,89.72
2018-03-25T00:01:54.162Z,90.29
2018-03-25T00:02:54.077Z,89.63
2018-03-25T00:03:54.070Z,90.01
2018-03-25T00:04:54.020Z,90.39
2018-03-25T00:05:54.086Z,90.77
2018-03-25T00:06:53.963Z,90.58
2018-03-25T00:07:53.992Z,90.20
2018-03-25T00:08:53.908Z,89.63
2018-03-25T00:09:53.903Z,89.34
2018-03-25T00:10:53.850Z,89.44
2018-03-25T00:11:53.918Z,89.53
2018-03-25T00:12:53.795Z,89.34
2018-03-25T00:13:53.828Z,89.34
2018-03-25T00:14:53.735Z,89.53
2018-03-25T00:15:53.738Z,89.15
2018-03-25T00:16:53.681Z,89.15
2018-03-25T00:17:53.748Z,89.91
2018-03-25T00:18:53.624Z,89.44
2018-03-25T00:19:53.665Z,89.06
2018-03-25T00:20:53.592Z,89.06
2018-03-25T00:21:54.593Z,89.44
2018-03-25T00:22:53.511Z,89.53
2018-03-25T00:23:53.587Z,89.72
2018-03-25T00:24:53.456Z,89.72
2018-03-25T00:25:53.491Z,89.53
2018-03-25T00:26:53.395Z,89.72
2018-03-25T00:27:53.403Z,89.63
2018-03-25T00:28:53.347Z,89.63
2018-03-25T00:29:53.415Z,89.53
2018-03-25T00:30:53.283Z,89.63
2018-03-25T00:31:53.343Z,90.20
2018-03-25T00:32:53.225Z,89.39
2018-03-25T00:33:53.237Z,89.58
2018-03-25T00:34:53.167Z,90.25
2018-03-25T00:35:53.250Z,90.06
2018-03-25T00:36:53.109Z,89.53
2018-03-25T00:37:53.160Z,89.39
2018-03-25T00:38:53.065Z,89.39
2018-03-25T00:39:53.075Z,89.58
2018-03-25T00:40:53.003Z,89.58
2018-03-25T00:41:53.084Z,89.39
2018-03-25T00:42:52.942Z,90.25
2018-03-25T00:43:52.989Z,89.68
2018-03-25T00:44:52.885Z,89.39
2018-03-25T00:45:52.905Z,89.39
2018-03-25T00:46:52.824Z,89.77
2018-03-25T00:47:52.816Z,90.34
2018-03-25T00:48:52.765Z,90.63
2018-03-25T00:49:52.829Z,90.44
2018-03-25T00:50:52.713Z,89.96
2018-03-25T00:51:52.737Z,90.06
2018-03-25T00:52:52.656Z,90.25
2018-03-25T00:53:52.647Z,90.34
2018-03-25T00:54:52.598Z,90.15
2018-03-25T00:55:52.655Z,89.96
2018-03-25T00:56:52.539Z,90.53
2018-03-25T00:57:52.578Z,91.19
2018-03-25T00:58:52.483Z,91.48
2018-03-25T00:59:52.484Z,91.57
2018-03-25T01:00:52.424Z,91.57
2018-03-25T01:01:52.498Z,91.19
2018-03-25T01:02:52.369Z,91.19
2018-03-25T01:03:52.401Z,91.86
2018-03-25T01:04:52.308Z,91.86
2018-03-25T01:05:52.311Z,91.76
2018-03-25T01:06:52.253Z,91.86
2018-03-25T01:07:52.323Z,91.86
2018-03-25T01:08:52.194Z,91.57
2018-03-25T01:09:52.233Z,92.05
2018-03-25T01:10:52.132Z,92.33
2018-03-25T01:11:52.143Z,91.67
2018-03-25T01:12:52.082Z,91.29
2018-03-25T01:13:52.160Z,91.57
2018-03-25T01:14:52.020Z,91.76
2018-03-25T01:15:52.067Z,91.19
2018-03-25T01:16:51.963Z,91.48
2018-03-25T01:17:51.980Z,91.57
2018-03-25T01:18:51.904Z,91.76
2018-03-25T01:19:51.992Z,91.57
2018-03-25T01:20:51.848Z,92.05
2018-03-25T01:21:51.897Z,91.86
2018-03-25T01:22:51.792Z,92.05
2018-03-25T01:23:51.806Z,92.14
2018-03-25T01:24:51.772Z,92.05
2018-03-25T01:25:51.717Z,92.52
2018-03-25T01:26:51.674Z,93.18
2018-03-25T01:27:51.731Z,92.99
2018-03-25T01:28:51.620Z,92.61
2018-03-25T01:29:51.641Z,92.24
2018-03-25T01:30:51.564Z,92.05
2018-03-25T01:31:51.552Z,91.86
2018-03-25T01:32:51.507Z,91.57
2018-03-25T01:33:51.560Z,92.43
2018-03-25T01:34:51.444Z,91.95
2018-03-25T01:35:51.472Z,92.52
2018-03-25T01:36:51.387Z,92.90
2018-03-25T01:37:51.383Z,92.99
2018-03-25T01:38:51.328Z,93.46
2018-03-25T01:39:51.398Z,93.08
2018-03-25T01:40:51.274Z,93.37
2018-03-25T01:41:51.309Z,93.56
2018-03-25T01:42:51.213Z,93.37
2018-03-25T01:43:51.224Z,93.27
2018-03-25T01:44:51.156Z,93.18
2018-03-25T01:45:51.222Z,93.08
2018-03-25T01:46:51.179Z,92.90
2018-03-25T01:47:51.142Z,92.80
2018-03-25T01:48:51.043Z,92.43
2018-03-25T01:49:51.046Z,92.05
2018-03-25T01:50:50.972Z,92.33
2018-03-25T01:51:51.060Z,91.86
2018-03-25T01:52:50.925Z,91.95
2018-03-25T01:53:50.969Z,92.33
2018-03-25T01:54:50.866Z,92.33
2018-03-25T01:55:50.880Z,92.43
2018-03-25T01:56:50.809Z,92.24
2018-03-25T01:57:50.788Z,92.19
2018-03-25T01:58:50.749Z,92.05
2018-03-25T01:59:50.800Z,91.34
2018-03-25T02:00:50.695Z,91.38
2018-03-25T02:01:50.712Z,91.67
2018-03-25T02:02:50.631Z,92.33
2018-03-25T02:03:50.622Z,92.61
2018-03-25T02:04:50.578Z,92.29
2018-03-25T02:05:50.636Z,92.85
2018-03-25T02:06:50.515Z,93.27
2018-03-25T02:07:50.544Z,93.04
2018-03-25T02:08:50.457Z,93.08
2018-03-25T02:09:50.456Z,92.33
2018-03-25T02:10:50.406Z,92.61
2018-03-25T02:11:50.468Z,92.52
2018-03-25T02:12:50.339Z,93.18
2018-03-25T02:13:50.381Z,93.27
2018-03-25T02:14:50.286Z,92.99
2018-03-25T02:15:50.290Z,92.99
2018-03-25T02:16:50.239Z,93.75
2018-03-25T02:17:50.300Z,94.42
2018-03-25T02:18:50.168Z,94.32
2018-03-25T02:19:50.210Z,94.23
2018-03-25T02:20:50.111Z,94.70
2018-03-25T02:21:50.118Z,93.84
2018-03-25T02:22:50.049Z,93.94
2018-03-25T02:23:50.133Z,93.75
2018-03-25T02:24:49.993Z,93.94
2018-03-25T02:25:50.042Z,94.23
2018-03-25T02:26:49.938Z,94.32
2018-03-25T02:27:49.961Z,94.32
2018-03-25T02:28:49.878Z,93.84
2018-03-25T02:29:49.864Z,93.94
2018-03-25T02:30:49.816Z,94.60
2018-03-25T02:31:49.877Z,94.60
2018-03-25T02:32:49.759Z,94.51
2018-03-25T02:33:49.785Z,94.60
2018-03-25T02:34:49.699Z,94.42
2018-03-25T02:35:49.694Z,94.42
2018-03-25T02:36:49.641Z,94.04
2018-03-25T02:37:49.709Z,94.60
2018-03-25T02:38:49.584Z,94.51
2018-03-25T02:39:49.623Z,94.42
2018-03-25T02:40:49.526Z,94.23
2018-03-25T02:41:49.530Z,94.42
2018-03-25T02:42:49.465Z,94.98
2018-03-25T02:43:49.548Z,95.07
2018-03-25T02:44:49.409Z,95.07
2018-03-25T02:45:49.456Z,95.07
2018-03-25T02:46:49.354Z,95.07
2018-03-25T02:47:49.367Z,94.89
2018-03-25T02:48:49.291Z,95.17
2018-03-25T02:49:49.378Z,95.55
2018-03-25T02:50:49.245Z,95.07
2018-03-25T02:51:49.296Z,94.89
2018-03-25T02:52:49.179Z,94.98
2018-03-25T02:53:49.202Z,94.60
2018-03-25T02:54:49.118Z,94.51
2018-03-25T02:55:49.106Z,94.70
2018-03-25T02:56:49.069Z,94.51
2018-03-25T02:57:49.118Z,94.42
2018-03-25T02:58:49.000Z,94.79
2018-03-25T02:59:49.034Z,94.70
2018-03-25T03:00:48.942Z,94.60
2018-03-25T03:01:48.939Z,94.98
2018-03-25T03:02:48.887Z,94.89
2018-03-25T03:03:48.950Z,95.26
2018-03-25T03:04:48.823Z,95.17
2018-03-25T03:05:48.861Z,95.26
2018-03-25T03:06:48.769Z,95.07
2018-03-25T03:07:48.769Z,94.51
2018-03-25T03:08:48.711Z,94.51
2018-03-25T03:09:48.783Z,94.32
2018-03-25T03:10:48.650Z,94.60
2018-03-25T03:11:48.697Z,94.60
2018-03-25T03:12:48.599Z,94.51
2018-03-25T03:13:48.602Z,94.42
2018-03-25T03:14:48.534Z,94.51
2018-03-25T03:15:48.614Z,94.89
2018-03-25T03:16:48.474Z,95.07
2018-03-25T03:17:48.528Z,95.07
2018-03-25T03:18:48.414Z,95.21
2018-03-25T03:19:48.441Z,94.74
2018-03-25T03:20:48.366Z,94.65
2018-03-25T03:21:48.347Z,94.37
2018-03-25T03:22:48.305Z,94.37
2018-03-25T03:23:48.367Z,93.89
2018-03-25T03:24:48.250Z,93.51
2018-03-25T03:25:48.323Z,93.70
2018-03-25T03:26:48.188Z,93.80
2018-03-25T03:27:48.178Z,94.56
2018-03-25T03:28:48.123Z,94.18
2018-03-25T03:29:48.192Z,94.74
2018-03-25T03:30:48.073Z,95.21
2018-03-25T03:31:48.107Z,94.93
2018-03-25T03:32:48.010Z,94.93
2018-03-25T03:33:48.010Z,94.84
2018-03-25T03:34:47.949Z,94.27
2018-03-25T03:35:48.022Z,94.37
2018-03-25T03:36:47.889Z,94.08
2018-03-25T03:37:47.942Z,94.46
2018-03-25T03:38:47.830Z,94.65
2018-03-25T03:39:47.844Z,94.84
2018-03-25T03:40:47.774Z,94.74
2018-03-25T03:41:47.856Z,94.84
2018-03-25T03:42:47.717Z,94.74
2018-03-25T03:43:47.765Z,94.27
2018-03-25T03:44:47.654Z,94.18
2018-03-25T03:45:47.679Z,94.37
2018-03-25T03:46:47.608Z,94.65
2018-03-25T03:47:47.587Z,94.27
2018-03-25T03:48:47.540Z,94.08
2018-03-25T03:49:47.597Z,94.65
2018-03-25T03:50:47.481Z,94.65
2018-03-25T03:51:47.507Z,93.89
2018-03-25T03:52:47.422Z,94.27
2018-03-25T03:53:47.419Z,94.08
2018-03-25T03:54:47.369Z,93.99
2018-03-25T03:55:47.429Z,94.46
2018-03-25T03:56:47.303Z,95.12
2018-03-25T03:57:47.339Z,95.03
2018-03-25T03:58:47.241Z,94.84
2018-03-25T03:59:47.251Z,95.03
2018-03-25T04:00:47.189Z,95.21
2018-03-25T04:01:47.263Z,94.84
2018-03-25T04:02:47.126Z,95.59
2018-03-25T04:03:47.174Z,95.59
2018-03-25T04:04:47.070Z,95.59
2018-03-25T04:05:47.086Z,95.97
2018-03-25T04:06:47.009Z,96.45
2018-03-25T04:07:46.989Z,95.40
2018-03-25T04:08:46.952Z,95.59
2018-03-25T04:09:47.008Z,95.69
2018-03-25T04:10:46.890Z,95.78
2018-03-25T04:11:46.916Z,94.84
2018-03-25T04:12:46.835Z,95.21
2018-03-25T04:13:46.824Z,94.84
2018-03-25T04:14:46.780Z,95.21
2018-03-25T04:15:46.838Z,94.93
2018-03-25T04:16:46.712Z,95.12
2018-03-25T04:17:46.751Z,94.93
2018-03-25T04:18:46.655Z,95.12
2018-03-25T04:19:46.658Z,95.50
2018-03-25T04:20:46.595Z,95.69
2018-03-25T04:21:46.676Z,96.26
2018-03-25T04:22:46.535Z,96.35
2018-03-25T04:23:46.580Z,95.59
2018-03-25T04:24:46.481Z,95.78
2018-03-25T04:25:46.492Z,95.59
2018-03-25T04:26:46.417Z,96.26
2018-03-25T04:27:46.401Z,95.78
2018-03-25T04:28:46.358Z,95.88
2018-03-25T04:29:46.414Z,96.35
2018-03-25T04:30:46.309Z,96.35
2018-03-25T04:31:46.331Z,96.64
2018-03-25T04:32:46.240Z,95.78
2018-03-25T04:33:46.236Z,95.88
2018-03-25T04:34:46.184Z,96.45
2018-03-25T04:35:46.244Z,96.07
2018-03-25T04:36:46.121Z,95.69
2018-03-25T04:37:46.156Z,96.35
2018-03-25T04:38:46.064Z,95.78
2018-03-25T04:39:46.066Z,95.50
2018-03-25T04:40:46.006Z,95.59
2018-03-25T04:41:46.081Z,95.59
2018-03-25T04:42:45.943Z,95.78
2018-03-25T04:43:45.991Z,95.40
2018-03-25T04:44:45.883Z,95.50
2018-03-25T04:45:45.898Z,95.55
2018-03-25T04:46:45.826Z,95.55
2018-03-25T04:47:45.914Z,95.64
2018-03-25T04:48:45.764Z,95.45
2018-03-25T04:49:45.824Z,96.31
2018-03-25T04:50:45.706Z,96.21
2018-03-25T04:51:45.737Z,95.45
2018-03-25T04:52:45.645Z,95.83
2018-03-25T04:53:45.642Z,95.93
2018-03-25T04:54:45.590Z,96.31
2018-03-25T04:55:45.655Z,97.16
2018-03-25T04:56:45.530Z,97.16
2018-03-25T04:57:45.564Z,96.88
2018-03-25T04:58:45.469Z,96.97
2018-03-25T04:59:45.476Z,97.16
2018-03-25T05:00:45.410Z,97.16
2018-03-25T05:01:45.490Z,96.88
2018-03-25T05:02:45.362Z,97.16
2018-03-25T05:03:45.397Z,97.06
2018-03-25T05:04:45.288Z,97.16
2018-03-25T05:05:45.307Z,97.06
2018-03-25T05:06:45.230Z,96.50
2018-03-25T05:07:45.219Z,96.97
2018-03-25T05:08:45.170Z,97.16
2018-03-25T05:09:45.229Z,96.78
2018-03-25T05:10:45.108Z,97.34
2018-03-25T05:11:45.141Z,97.16
2018-03-25T05:12:45.051Z,97.06
2018-03-25T05:13:45.051Z,97.16
2018-03-25T05:14:44.989Z,97.34
2018-03-25T05:15:45.062Z,97.63
2018-03-25T05:16:44.936Z,97.72
2018-03-25T05:17:44.973Z,97.91
2018-03-25T05:18:44.870Z,98.10
2018-03-25T05:19:44.884Z,97.91
2018-03-25T05:20:44.811Z,97.72
2018-03-25T05:21:44.897Z,97.82
2018-03-25T05:22:44.753Z,97.25
2018-03-25T05:23:44.804Z,96.88
2018-03-25T05:24:44.691Z,97.06
2018-03-25T05:25:44.719Z,96.97
2018-03-25T05:26:44.633Z,97.06
2018-03-25T05:27:44.634Z,96.50
2018-03-25T05:28:44.572Z,96.78
2018-03-25T05:29:44.641Z,96.31
2018-03-25T05:30:44.510Z,96.12
2018-03-25T05:31:44.549Z,96.40
2018-03-25T05:32:44.450Z,96.12
2018-03-25T05:33:44.464Z,96.50
2018-03-25T05:34:44.391Z,96.69
2018-03-25T05:35:44.470Z,96.69
2018-03-25T05:36:44.332Z,96.88
2018-03-25T05:37:44.382Z,96.12
2018-03-25T05:38:44.272Z,96.88
2018-03-25T05:39:44.291Z,96.31
2018-03-25T05:40:44.212Z,96.69
2018-03-25T05:41:44.201Z,96.59
2018-03-25T05:42:44.160Z,96.31
2018-03-25T05:43:44.213Z,96.50
2018-03-25T05:44:44.091Z,96.50
2018-03-25T05:45:44.176Z,96.50
2018-03-25T05:46:44.028Z,96.50
2018-03-25T05:47:44.034Z,96.02
2018-03-25T05:48:43.970Z,96.12
2018-03-25T05:49:44.049Z,96.59
2018-03-25T05:50:43.911Z,96.31
2018-03-25T05:51:43.956Z,96.69
2018-03-25T05:52:43.852Z,96.59
2018-03-25T05:53:43.876Z,96.50
2018-03-25T05:54:43.790Z,97.06
2018-03-25T05:55:43.778Z,97.16
2018-03-25T05:56:43.732Z,96.78
2018-03-25T05:57:43.806Z,97.34
2018-03-25T05:58:43.668Z,97.25
2018-03-25T05:59:43.701Z,97.91
2018-03-25T06:00:43.610Z,97.06
2018-03-25T06:01:43.613Z,97.16
2018-03-25T06:02:43.553Z,96.88
2018-03-25T06:03:43.623Z,97.06
2018-03-25T06:04:43.500Z,97.06
2018-03-25T06:05:43.534Z,96.97
2018-03-25T06:06:43.429Z,97.06
2018-03-25T06:07:43.444Z,97.16
2018-03-25T06:08:43.369Z,96.59
2018-03-25T06:09:43.350Z,97.06
2018-03-25T06:10:43.311Z,97.25
2018-03-25T06:11:43.368Z,97.06
2018-03-25T06:12:43.250Z,97.25
2018-03-25T06:13:43.275Z,97.06
2018-03-25T06:14:43.189Z,97.25
2018-03-25T06:15:43.210Z,97.25
2018-03-25T06:16:43.129Z,97.53
2018-03-25T06:17:43.197Z,97.72
2018-03-25T06:18:43.071Z,97.82
2018-03-25T06:19:43.108Z,97.72
2018-03-25T06:20:43.011Z,97.72
2018-03-25T06:21:43.019Z,97.72
2018-03-25T06:22:42.950Z,97.82
2018-03-25T06:23:43.035Z,98.10
2018-03-25T06:24:42.895Z,98.10
2018-03-25T06:25:42.942Z,98.10
2018-03-25T06:26:42.829Z,98.01
2018-03-25T06:27:42.855Z,97.72
2018-03-25T06:28:42.774Z,97.77
2018-03-25T06:29:42.763Z,97.77
2018-03-25T06:30:42.761Z,97.87
2018-03-25T06:31:42.778Z,97.68
2018-03-25T06:32:42.651Z,97.96
2018-03-25T06:33:42.686Z,97.96
2018-03-25T06:34:42.593Z,97.87
2018-03-25T06:35:42.599Z,97.77
2018-03-25T06:36:42.530Z,98.25
2018-03-25T06:37:42.612Z,98.15
2018-03-25T06:38:42.468Z,98.53
2018-03-25T06:39:42.519Z,98.91
2018-03-25T06:40:42.412Z,98.72
2018-03-25T06:41:42.426Z,98.72
2018-03-25T06:42:42.360Z,99.10
2018-03-25T06:43:42.337Z,99.10
2018-03-25T06:44:42.292Z,98.53
2018-03-25T06:45:42.349Z,98.53
2018-03-25T06:46:42.229Z,98.72
2018-03-25T06:47:42.257Z,99.10
2018-03-25T06:48:42.176Z,98.25
2018-03-25T06:49:42.170Z,98.53
2018-03-25T06:50:42.114Z,98.53
2018-03-25T06:51:42.191Z,98.91
2018-03-25T06:52:42.051Z,98.25
2018-03-25T06:53:42.096Z,98.72
2018-03-25T06:54:41.996Z,98.53
2018-03-25T06:55:41.999Z,98.44
2018-03-25T06:56:41.936Z,98.15
2018-03-25T06:57:42.013Z,98.34
2018-03-25T06:58:41.873Z,97.77
2018-03-25T06:59:41.923Z,97.82
2018-03-25T07:00:41.816Z,97.87
2018-03-25T07:01:41.834Z,98.20
2018-03-25T07:02:41.756Z,98.77
2018-03-25T07:03:41.742Z,99.15
2018-03-25T07:04:41.695Z,99.15
2018-03-25T07:05:41.755Z,98.11
2018-03-25T07:06:41.637Z,99.05
2018-03-25T07:07:41.664Z,98.77
2018-03-25T07:08:41.594Z,98.96
2018-03-25T07:09:41.576Z,98.68
2018-03-25T07:10:41.520Z,98.11
2018-03-25T07:11:41.587Z,98.30
2018-03-25T07:12:41.460Z,98.49
2018-03-25T07:13:41.497Z,98.77
2018-03-25T07:14:41.400Z,98.58
2018-03-25T07:15:41.412Z,98.39
2018-03-25T07:16:41.339Z,98.11
2018-03-25T07:17:41.422Z,98.11
2018-03-25T07:18:41.289Z,98.11
2018-03-25T07:19:41.346Z,97.82
2018-03-25T07:20:41.228Z,97.68
2018-03-25T07:21:41.240Z,97.87
2018-03-25T07:22:41.165Z,98.06
2018-03-25T07:23:41.257Z,97.30
2018-03-25T07:24:41.113Z,96.73
2018-03-25T07:25:41.166Z,97.30
2018-03-25T07:26:41.046Z,96.64
2018-03-25T07:27:41.077Z,96.55
2018-03-25T07:28:40.994Z,96.55
2018-03-25T07:29:40.984Z,96.45
2018-03-25T07:30:40.935Z,96.36
2018-03-25T07:31:40.997Z,96.55
2018-03-25T07:32:40.883Z,96.55
2018-03-25T07:33:40.912Z,96.64
2018-03-25T07:34:40.823Z,95.88
2018-03-25T07:35:40.834Z,95.65
2018-03-25T07:36:40.770Z,95.65
2018-03-25T07:37:40.832Z,94.98
2018-03-25T07:38:40.726Z,94.98
2018-03-25T07:39:40.735Z,94.60
2018-03-25T07:40:40.647Z,94.89
2018-03-25T07:41:40.667Z,93.94
2018-03-25T07:42:40.588Z,94.42
2018-03-25T07:43:40.662Z,94.60
2018-03-25T07:44:40.559Z,94.23
2018-03-25T07:45:40.574Z,94.04
2018-03-25T07:46:40.477Z,94.23
2018-03-25T07:47:40.483Z,94.42
2018-03-25T07:48:40.432Z,93.23
2018-03-25T07:49:40.502Z,93.04
2018-03-25T07:50:40.361Z,92.47
2018-03-25T07:51:40.407Z,92.57
2018-03-25T07:52:40.305Z,92.38
2018-03-25T07:53:40.315Z,92.18
2018-03-25T07:54:40.246Z,93.23
2018-03-25T07:55:40.328Z,92.85
2018-03-25T07:56:40.192Z,92.38
2018-03-25T07:57:40.239Z,92.09
2018-03-25T07:58:40.131Z,91.80
2018-03-25T07:59:40.148Z,91.61
2018-03-25T08:00:40.087Z,91.14
2018-03-25T08:01:40.152Z,91.14
2018-03-25T08:02:40.029Z,90.57
2018-03-25T08:03:40.074Z,90.33
2018-03-25T08:04:39.964Z,90.05
2018-03-25T08:05:39.982Z,89.76
2018-03-25T08:06:39.910Z,89.39
2018-03-25T08:07:39.996Z,89.76
2018-03-25T08:08:39.847Z,89.58
2018-03-25T08:09:39.901Z,89.58
2018-03-25T08:10:39.796Z,89.39
2018-03-25T08:11:39.812Z,89.39
2018-03-25T08:12:39.742Z,89.39
2018-03-25T08:13:39.828Z,89.29
2018-03-25T08:14:39.685Z,89.29
2018-03-25T08:15:39.734Z,88.81
2018-03-25T08:16:39.629Z,88.53
2018-03-25T08:17:39.652Z,88.62
2018-03-25T08:18:39.576Z,89.00
2018-03-25T08:19:39.657Z,89.05
2018-03-25T08:20:39.518Z,88.86
2018-03-25T08:21:39.567Z,88.67
2018-03-25T08:22:39.460Z,88.29
2018-03-25T08:23:39.472Z,87.72
2018-03-25T08:24:39.405Z,87.72
2018-03-25T08:25:39.491Z,87.15
2018-03-25T08:26:39.352Z,87.53
2018-03-25T08:27:39.404Z,87.15
2018-03-25T08:28:39.292Z,86.01
2018-03-25T08:29:39.310Z,85.53
2018-03-25T08:30:39.243Z,86.20
2018-03-25T08:31:39.326Z,86.39
2018-03-25T08:32:39.181Z,86.63
2018-03-25T08:33:39.236Z,86.24
2018-03-25T08:34:39.129Z,85.86
2018-03-25T08:35:39.101Z,85.77
2018-03-25T08:36:39.207Z,85.20
2018-03-25T08:37:39.052Z,84.72
2018-03-25T08:38:39.123Z,84.34
2018-03-25T08:39:38.992Z,84.25
2018-03-25T08:40:38.970Z,84.53
2018-03-25T08:41:39.038Z,83.68
2018-03-25T08:42:38.913Z,83.49
2018-03-25T08:43:39.057Z,83.78
2018-03-25T08:44:38.859Z,83.87
2018-03-25T08:45:38.962Z,83.97
2018-03-25T08:46:38.860Z,83.68
2018-03-25T08:47:38.882Z,83.82
2018-03-25T08:48:38.756Z,83.82
2018-03-25T08:49:38.818Z,84.58
2018-03-25T08:50:38.702Z,84.39
2018-03-25T08:51:38.800Z,83.53
2018-03-25T08:52:38.647Z,82.20
2018-03-25T08:53:38.711Z,81.63
2018-03-25T08:54:38.593Z,81.16
2018-03-25T08:55:38.760Z,81.48
2018-03-25T08:56:38.538Z,82.15
2018-03-25T08:57:38.637Z,83.29
2018-03-25T08:58:38.491Z,82.81
2018-03-25T08:59:38.549Z,82.24
2018-03-25T09:00:38.432Z,81.77
2018-03-25T09:01:38.561Z,81.20
2018-03-25T09:02:38.381Z,80.53
2018-03-25T09:03:38.471Z,81.01
2018-03-25T09:04:38.329Z,81.01
2018-03-25T09:05:38.549Z,80.63
2018-03-25T09:06:38.276Z,80.82
2018-03-25T09:07:38.408Z,80.76
2018-03-25T09:08:38.227Z,80.82
2018-03-25T09:09:38.311Z,80.19
2018-03-25T09:10:38.169Z,80.00
2018-03-25T09:11:38.324Z,79.81
2018-03-25T09:12:38.121Z,78.67
2018-03-25T09:13:38.235Z,79.33
2018-03-25T09:14:38.070Z,78.57
2018-03-25T09:15:38.159Z,78.38
2018-03-25T09:16:38.017Z,78.33
2018-03-25T09:17:38.160Z,78.42
2018-03-25T09:18:37.966Z,77.56
2018-03-25T09:19:38.072Z,77.76
2018-03-25T09:20:37.916Z,77.47
2018-03-25T09:21:38.088Z,78.17
2018-03-25T09:22:37.874Z,77.98
2018-03-25T09:23:37.999Z,78.12
2018-03-25T09:24:37.813Z,77.11
2018-03-25T09:25:37.915Z,74.77
2018-03-25T09:26:37.762Z,72.71
2018-03-25T09:27:37.950Z,71.12
2018-03-25T09:28:37.717Z,69.87
2018-03-25T09:29:37.837Z,68.67
2018-03-25T09:30:37.664Z,69.27
2018-03-25T09:31:37.850Z,67.02
2018-03-25T09:32:37.615Z,65.14
2018-03-25T09:33:37.760Z,62.97
2018-03-25T09:34:37.570Z,61.76
2018-03-25T09:35:37.674Z,58.65
2018-03-25T09:36:37.520Z,56.83
2018-03-25T09:37:37.585Z,56.38
2018-03-25T09:38:37.473Z,55.62
2018-03-25T09:39:37.496Z,54.30
2018-03-25T09:40:37.424Z,53.24
2018-03-25T09:41:37.509Z,52.89
2018-03-25T09:42:37.377Z,53.39
2018-03-25T09:43:37.420Z,51.47
2018-03-25T09:44:37.340Z,51.37
2018-03-25T09:45:37.333Z,50.56
2018-03-25T09:46:37.283Z,49.69
2018-03-25T09:47:37.348Z,49.43
2018-03-25T09:48:37.250Z,48.85
2018-03-25T09:49:37.258Z,48.21
2018-03-25T09:50:37.197Z,47.44
2018-03-25T09:51:37.272Z,46.47
2018-03-25T09:52:37.160Z,46.38
2018-03-25T09:53:37.185Z,45.99
2018-03-25T09:54:37.109Z,44.86
2018-03-25T09:55:37.197Z,45.63
2018-03-25T09:56:37.068Z,45.05
2018-03-25T09:57:37.109Z,43.03
2018-03-25T09:58:37.080Z,44.38
2018-03-25T09:59:37.021Z,45.92
2018-03-25T10:00:36.983Z,44.57
2018-03-25T10:01:37.035Z,43.15
2018-03-25T10:02:36.939Z,44.13
2018-03-25T10:03:36.949Z,41.03
2018-03-25T10:04:36.939Z,44.04
2018-03-25T10:05:36.961Z,41.53
2018-03-25T10:06:36.859Z,41.72
2018-03-25T10:07:36.882Z,41.92
2018-03-25T10:08:36.827Z,42.90
2018-03-25T10:09:36.876Z,41.77
2018-03-25T10:10:36.780Z,40.80
2018-03-25T10:11:36.799Z,39.94
2018-03-25T10:12:36.743Z,40.44
2018-03-25T10:13:36.816Z,39.47
2018-03-25T10:14:36.701Z,40.24
2018-03-25T10:15:36.728Z,40.36
2018-03-25T10:16:36.664Z,38.04
2018-03-25T10:17:36.736Z,37.93
2018-03-25T10:18:36.631Z,38.21
2018-03-25T10:19:36.656Z,37.75
2018-03-25T10:20:36.590Z,36.67
2018-03-25T10:21:36.662Z,37.25
2018-03-25T10:22:36.556Z,36.38
2018-03-25T10:23:36.578Z,37.15
2018-03-25T10:24:36.509Z,37.45
2018-03-25T10:25:36.595Z,36.87
2018-03-25T10:26:36.478Z,37.73
2018-03-25T10:27:36.500Z,37.65
2018-03-25T10:28:36.444Z,35.55
2018-03-25T10:29:36.522Z,35.84
2018-03-25T10:30:36.403Z,36.34
2018-03-25T10:31:36.394Z,33.05
2018-03-25T10:32:36.435Z,34.70
2018-03-25T10:33:36.349Z,33.62
2018-03-25T10:34:36.446Z,34.95
2018-03-25T10:35:36.315Z,35.92
2018-03-25T10:36:36.298Z,35.05
2018-03-25T10:37:36.378Z,35.63
2018-03-25T10:38:36.259Z,37.95
2018-03-25T10:39:36.397Z,35.45
2018-03-25T10:40:36.228Z,34.10
2018-03-25T10:41:36.294Z,33.91
2018-03-25T10:42:36.187Z,34.10
2018-03-25T10:43:36.308Z,32.75
2018-03-25T10:44:36.158Z,33.42
2018-03-25T10:45:36.229Z,32.46
2018-03-25T10:46:36.125Z,32.36
2018-03-25T10:47:36.233Z,33.42
2018-03-25T10:48:36.088Z,33.52
2018-03-25T10:49:36.171Z,33.72
2018-03-25T10:50:36.054Z,35.06
2018-03-25T10:51:36.157Z,34.78
2018-03-25T10:52:36.029Z,33.42
2018-03-25T10:53:36.183Z,33.60
2018-03-25T10:54:35.991Z,32.71
2018-03-25T10:55:36.080Z,34.26
2018-03-25T10:56:35.952Z,37.06
2018-03-25T10:57:36.096Z,36.30
2018-03-25T10:58:35.909Z,34.39
2018-03-25T10:59:36.020Z,35.86
2018-03-25T11:00:35.904Z,35.37
2018-03-25T11:01:36.020Z,35.89
2018-03-25T11:02:35.849Z,35.23
2018-03-25T11:03:35.929Z,33.39
2018-03-25T11:04:35.818Z,33.59
2018-03-25T11:05:35.946Z,33.78
2018-03-25T11:06:35.791Z,31.25
2018-03-25T11:07:35.859Z,31.34
2018-03-25T11:08:35.752Z,31.13
2018-03-25T11:09:35.885Z,32.49
2018-03-25T11:10:35.718Z,33.26
2018-03-25T11:11:35.886Z,33.47
2018-03-25T11:12:35.689Z,34.17
2018-03-25T11:13:35.690Z,32.14
2018-03-25T11:14:35.673Z,32.06
2018-03-25T11:15:35.740Z,31.16
2018-03-25T11:16:35.624Z,32.14
2018-03-25T11:17:35.650Z,33.29
2018-03-25T11:18:35.655Z,32.23
2018-03-25T11:19:35.574Z,33.12
2018-03-25T11:20:35.665Z,32.64
2018-03-25T11:21:35.545Z,32.44
2018-03-25T11:22:36.603Z,30.11
2018-03-25T11:23:35.514Z,31.18
2018-03-25T11:24:35.601Z,32.15
2018-03-25T11:25:35.485Z,33.22
2018-03-25T11:26:35.500Z,30.89
2018-03-25T11:27:35.456Z,30.78
2018-03-25T11:28:35.512Z,30.18
2018-03-25T11:29:35.434Z,28.91
2018-03-25T11:30:35.425Z,30.05
2018-03-25T11:31:35.393Z,29.66
2018-03-25T11:32:35.435Z,31.99
2018-03-25T11:33:35.372Z,33.63
2018-03-25T11:34:35.449Z,32.47
2018-03-25T11:35:35.334Z,32.57
2018-03-25T11:36:35.358Z,32.28
2018-03-25T11:37:35.303Z,32.38
2018-03-25T11:38:35.374Z,31.89
2018-03-25T11:39:35.274Z,32.26
2018-03-25T11:40:35.283Z,33.54
2018-03-25T11:41:35.252Z,33.15
2018-03-25T11:42:35.300Z,34.31
2018-03-25T11:43:35.215Z,35.49
2018-03-25T11:44:35.320Z,32.79
2018-03-25T11:45:35.188Z,31.63
2018-03-25T11:46:35.217Z,32.01
2018-03-25T11:47:35.205Z,33.55
2018-03-25T11:48:35.326Z,31.71
2018-03-25T11:49:35.126Z,30.93
2018-03-25T11:50:35.109Z,32.47
2018-03-25T11:51:35.094Z,31.20
2018-03-25T11:52:35.254Z,32.17
2018-03-25T11:53:35.064Z,31.20
2018-03-25T11:54:35.270Z,32.26
2018-03-25T11:55:35.047Z,32.56
2018-03-25T11:56:35.074Z,32.26
2018-03-25T11:57:35.016Z,30.99
2018-03-25T11:58:35.191Z,32.06
2018-03-25T11:59:34.980Z,33.20
2018-03-25T12:00:35.104Z,34.76
2018-03-25T12:01:34.950Z,33.97
2018-03-25T12:02:35.107Z,34.36
2018-03-25T12:03:34.918Z,33.78
2018-03-25T12:04:34.928Z,36.00
2018-03-25T12:05:34.892Z,35.53
2018-03-25T12:06:34.940Z,33.50
2018-03-25T12:07:34.875Z,34.95
2018-03-25T12:08:34.952Z,34.28
2018-03-25T12:09:34.852Z,34.08
2018-03-25T12:10:34.866Z,34.66
2018-03-25T12:11:34.805Z,34.28
2018-03-25T12:12:34.877Z,34.45
2018-03-25T12:13:34.775Z,33.00
2018-03-25T12:14:34.792Z,32.70
2018-03-25T12:15:34.753Z,33.76
2018-03-25T12:16:34.805Z,35.02
2018-03-25T12:17:34.734Z,37.23
2018-03-25T12:18:34.818Z,34.55
2018-03-25T12:19:34.685Z,36.55
2018-03-25T12:20:34.731Z,35.11
2018-03-25T12:21:34.655Z,34.92
2018-03-25T12:22:34.744Z,35.19
2018-03-25T12:23:34.625Z,35.48
2018-03-25T12:24:34.660Z,36.54
2018-03-25T12:25:34.597Z,37.21
2018-03-25T12:26:34.669Z,37.81
2018-03-25T12:27:34.566Z,35.86
2018-03-25T12:28:34.686Z,35.86
2018-03-25T12:29:34.537Z,35.96
2018-03-25T12:30:34.597Z,35.86
2018-03-25T12:31:34.507Z,37.70
2018-03-25T12:32:34.609Z,36.25
2018-03-25T12:33:34.480Z,37.62
2018-03-25T12:34:34.529Z,36.17
2018-03-25T12:35:34.450Z,36.36
2018-03-25T12:36:34.537Z,36.17
2018-03-25T12:37:34.418Z,35.02
2018-03-25T12:38:34.549Z,37.04
2018-03-25T12:39:34.396Z,36.27
2018-03-25T12:40:34.464Z,36.65
2018-03-25T12:41:34.362Z,37.23
2018-03-25T12:42:34.479Z,37.33
2018-03-25T12:43:34.336Z,38.02
2018-03-25T12:44:34.390Z,35.03
2018-03-25T12:45:34.303Z,35.80
2018-03-25T12:46:34.397Z,36.87
2018-03-25T12:47:34.275Z,36.09
2018-03-25T12:48:34.409Z,35.61
2018-03-25T12:49:34.247Z,35.80
2018-03-25T12:50:34.328Z,33.76
2018-03-25T12:51:34.218Z,32.76
2018-03-25T12:52:34.343Z,35.25